Time;durP1;ratioP1;P1;durP2;ratioP2;P2;SDS_P1;SDS_P2;PMS_P1;PMS_P2;Temp;Humidity;BMP_temperature;BMP_pressure;BME280_temperature;BME280_humidity;BME280_pressure;Samples;Min_cycle;Max_cycle;Signal;HPM_P1;HPM_P2
2022/11/14 00:00:31;;;;;;;6.67;3.43;;;;;;;;;;5055926;27;86976;-65
2022/11/14 00:03:01;;;;;;;7.80;3.33;;;;;;;;;;5063597;27;86461;-64
2022/11/14 00:05:30;;;;;;;4.17;3.07;;;;;;;;;;5062881;27;91254;-64
2022/11/14 00:07:58;;;;;;;4.93;3.17;;;;;;;;;;5062968;27;88579;-63
2022/11/14 00:10:26;;;;;;;4.27;3.10;;;;;;;;;;5063134;27;88036;-63
2022/11/14 00:12:55;;;;;;;5.70;3.43;;;;;;;;;;5063773;27;87049;-64
2022/11/14 00:15:23;;;;;;;5.97;3.30;;;;;;;;;;5059274;27;89253;-64
2022/11/14 00:17:52;;;;;;;9.03;3.27;;;;;;;;;;5048739;27;88621;-64
2022/11/14 00:20:21;;;;;;;7.30;3.37;;;;;;;;;;5063284;27;87037;-64
2022/11/14 00:22:50;;;;;;;7.87;3.63;;;;;;;;;;5063259;27;87026;-63
2022/11/14 00:25:18;;;;;;;6.07;3.20;;;;;;;;;;5063711;27;88783;-63
2022/11/14 00:27:46;;;;;;;6.20;2.90;;;;;;;;;;5063750;27;87792;-64
2022/11/14 00:30:15;;;;;;;7.30;3.07;;;;;;;;;;5063705;27;87033;-64
2022/11/14 00:32:43;;;;;;;4.50;2.43;;;;;;;;;;5063064;27;87118;-64
2022/11/14 00:35:12;;;;;;;6.03;3.20;;;;;;;;;;5062332;27;89920;-64
2022/11/14 00:37:41;;;;;;;7.00;3.80;;;;;;;;;;5062540;27;89019;-63
2022/11/14 00:40:10;;;;;;;6.87;3.00;;;;;;;;;;5064363;27;86952;-63
2022/11/14 00:42:38;;;;;;;4.30;2.60;;;;;;;;;;5063298;27;87213;-63
2022/11/14 00:45:07;;;;;;;3.60;2.07;;;;;;;;;;5064106;27;89050;-63
2022/11/14 00:47:35;;;;;;;6.17;2.90;;;;;;;;;;5063578;27;88677;-63
2022/11/14 00:50:04;;;;;;;4.33;2.40;;;;;;;;;;5063426;27;87028;-63
2022/11/14 00:52:32;;;;;;;6.13;2.83;;;;;;;;;;5063500;27;87882;-63
2022/11/14 00:55:02;;;;;;;6.77;3.40;;;;;;;;;;5063995;27;89191;-63
2022/11/14 00:57:30;;;;;;;5.17;3.30;;;;;;;;;;5062146;27;90808;-63
2022/11/14 00:59:58;;;;;;;6.73;2.53;;;;;;;;;;5063828;27;87956;-63
2022/11/14 01:02:27;;;;;;;3.63;2.20;;;;;;;;;;5063814;27;86968;-63
2022/11/14 01:04:55;;;;;;;5.67;2.67;;;;;;;;;;5063924;27;87699;-64
2022/11/14 01:07:23;;;;;;;4.23;3.07;;;;;;;;;;5062615;27;88720;-63
2022/11/14 01:09:52;;;;;;;3.47;2.27;;;;;;;;;;5064058;27;87242;-63
2022/11/14 01:12:21;;;;;;;3.63;2.50;;;;;;;;;;5063808;27;87009;-63
2022/11/14 01:14:50;;;;;;;3.67;2.93;;;;;;;;;;5063762;27;87902;-63
2022/11/14 01:17:18;;;;;;;4.30;2.53;;;;;;;;;;5062935;27;89176;-63
2022/11/14 01:19:46;;;;;;;3.43;1.90;;;;;;;;;;5063775;27;86972;-63
2022/11/14 01:22:15;;;;;;;4.10;2.47;;;;;;;;;;5063673;27;87025;-63
2022/11/14 01:24:43;;;;;;;2.40;1.73;;;;;;;;;;5063006;27;88932;-63
2022/11/14 01:27:11;;;;;;;5.30;2.70;;;;;;;;;;5063087;27;88352;-63
2022/11/14 01:29:41;;;;;;;2.43;1.77;;;;;;;;;;5063163;27;86930;-63
2022/11/14 01:32:09;;;;;;;4.93;2.53;;;;;;;;;;5063254;27;87166;-63
2022/11/14 01:34:38;;;;;;;3.43;2.20;;;;;;;;;;5062693;27;90708;-63
2022/11/14 01:37:06;;;;;;;4.73;2.13;;;;;;;;;;5062918;27;88868;-62
2022/11/14 01:39:34;;;;;;;4.77;2.47;;;;;;;;;;5062942;27;87880;-62
2022/11/14 01:42:02;;;;;;;2.10;1.87;;;;;;;;;;5075744;27;86376;-62
2022/11/14 01:44:44;;;;;;;4.10;2.27;;;;;;;;;;5062741;27;89267;-64
2022/11/14 01:47:13;;;;;;;3.67;1.83;;;;;;;;;;5062764;27;87450;-63
2022/11/14 01:49:42;;;;;;;2.13;1.40;;;;;;;;;;5062770;27;88008;-64
2022/11/14 01:52:11;;;;;;;2.43;1.80;;;;;;;;;;5063295;27;87144;-64
2022/11/14 01:54:39;;;;;;;3.00;1.63;;;;;;;;;;5063093;27;87988;-63
2022/11/14 01:57:08;;;;;;;2.80;1.60;;;;;;;;;;5062796;27;88937;-63
2022/11/14 01:59:37;;;;;;;1.73;1.53;;;;;;;;;;5063471;27;86914;-63
2022/11/14 02:02:07;;;;;;;6.20;2.20;;;;;;;;;;5047163;27;87117;-64
2022/11/14 02:04:36;;;;;;;2.67;1.83;;;;;;;;;;5061354;27;89114;-63
2022/11/14 02:07:04;;;;;;;3.77;2.33;;;;;;;;;;5062381;27;88526;-64
2022/11/14 02:09:34;;;;;;;5.23;2.53;;;;;;;;;;5062601;27;87034;-64
2022/11/14 02:12:03;;;;;;;3.43;2.27;;;;;;;;;;5062768;27;89380;-63
2022/11/14 02:14:32;;;;;;;1.70;1.57;;;;;;;;;;5062127;27;88880;-63
2022/11/14 02:17:00;;;;;;;2.60;1.80;;;;;;;;;;5063123;27;88675;-63
2022/11/14 02:19:50;;;;;;;1.90;1.53;;;;;;;;;;5062188;27;87158;-64
2022/11/14 02:22:20;;;;;;;2.90;2.10;;;;;;;;;;5062904;27;87161;-64
2022/11/14 02:24:48;;;;;;;2.67;1.80;;;;;;;;;;5061426;27;88765;-64
2022/11/14 02:27:16;;;;;;;1.63;1.27;;;;;;;;;;5061740;27;87705;-64
2022/11/14 02:29:45;;;;;;;2.80;1.50;;;;;;;;;;5061727;27;87132;-64
2022/11/14 02:32:13;;;;;;;2.50;1.63;;;;;;;;;;5062575;27;86067;-63
2022/11/14 02:34:41;;;;;;;2.87;1.53;;;;;;;;;;5061113;27;89165;-63
2022/11/14 02:37:10;;;;;;;2.73;1.73;;;;;;;;;;5062058;27;88980;-64
2022/11/14 02:39:39;;;;;;;3.33;1.37;;;;;;;;;;5062367;27;88076;-64
2022/11/14 02:42:08;;;;;;;2.03;1.40;;;;;;;;;;5062574;27;87017;-64
2022/11/14 02:44:36;;;;;;;1.90;1.60;;;;;;;;;;5061843;27;88798;-63
2022/11/14 02:47:04;;;;;;;1.67;1.37;;;;;;;;;;5062029;27;88527;-63
2022/11/14 02:49:33;;;;;;;2.30;1.30;;;;;;;;;;5061721;27;86993;-63
2022/11/14 02:52:01;;;;;;;1.70;1.47;;;;;;;;;;5062059;27;86986;-63
2022/11/14 02:54:29;;;;;;;4.07;1.50;;;;;;;;;;5062107;27;88973;-63
2022/11/14 02:56:59;;;;;;;2.53;1.47;;;;;;;;;;5062417;27;88389;-64
2022/11/14 02:59:27;;;;;;;1.67;1.57;;;;;;;;;;5061966;27;87026;-64
2022/11/14 03:01:55;;;;;;;1.67;1.23;;;;;;;;;;5061911;27;87081;-63
2022/11/14 03:04:24;;;;;;;2.03;1.43;;;;;;;;;;5061922;27;89525;-63
2022/11/14 03:06:52;;;;;;;1.47;1.33;;;;;;;;;;5061475;27;89636;-63
2022/11/14 03:09:21;;;;;;;3.60;1.57;;;;;;;;;;5061584;27;86925;-63
2022/11/14 03:11:49;;;;;;;2.50;1.73;;;;;;;;;;5061798;27;86890;-63
2022/11/14 03:14:19;;;;;;;1.23;1.13;;;;;;;;;;5061874;27;88078;-63
2022/11/14 03:16:47;;;;;;;3.70;1.23;;;;;;;;;;5061571;27;88721;-63
2022/11/14 03:19:16;;;;;;;1.97;1.33;;;;;;;;;;5062051;27;86853;-63
2022/11/14 03:21:44;;;;;;;2.17;1.17;;;;;;;;;;5061906;27;86280;-63
2022/11/14 03:24:12;;;;;;;0.87;0.83;;;;;;;;;;5061834;27;88047;-63
2022/11/14 03:26:41;;;;;;;1.07;0.97;;;;;;;;;;5061805;27;88869;-63
2022/11/14 03:29:09;;;;;;;2.73;1.30;;;;;;;;;;5062014;27;87995;-63
2022/11/14 03:31:39;;;;;;;5.23;1.47;;;;;;;;;;5062565;27;86961;-63
2022/11/14 03:34:07;;;;;;;2.07;1.50;;;;;;;;;;5061798;27;88954;-63
2022/11/14 03:36:35;;;;;;;1.03;0.93;;;;;;;;;;5061472;27;88909;-63
2022/11/14 03:39:04;;;;;;;1.80;1.37;;;;;;;;;;5061689;27;87124;-63
2022/11/14 03:41:32;;;;;;;1.30;1.20;;;;;;;;;;5061883;27;87048;-63
2022/11/14 03:44:00;;;;;;;1.30;1.03;;;;;;;;;;5061097;27;89542;-63
2022/11/14 03:46:29;;;;;;;1.33;1.23;;;;;;;;;;5061496;27;88743;-63
2022/11/14 03:48:58;;;;;;;1.50;1.40;;;;;;;;;;5042107;28;86871;-63
2022/11/14 03:51:27;;;;;;;2.10;1.60;;;;;;;;;;5058066;27;87081;-63
2022/11/14 03:53:55;;;;;;;1.70;1.60;;;;;;;;;;5060915;27;88675;-63
2022/11/14 03:56:23;;;;;;;2.03;1.40;;;;;;;;;;5061721;27;88319;-63
2022/11/14 03:58:52;;;;;;;2.50;1.23;;;;;;;;;;5058838;27;87497;-63
2022/11/14 04:01:20;;;;;;;1.50;1.40;;;;;;;;;;5061628;27;88202;-63
2022/11/14 04:03:49;;;;;;;1.67;1.57;;;;;;;;;;5061140;27;89068;-63
2022/11/14 04:06:18;;;;;;;1.57;1.30;;;;;;;;;;5060970;27;91789;-63
2022/11/14 04:08:46;;;;;;;2.47;1.47;;;;;;;;;;5060753;27;87223;-63
2022/11/14 04:11:15;;;;;;;1.30;1.17;;;;;;;;;;5061652;27;86865;-63
2022/11/14 04:13:43;;;;;;;2.37;1.40;;;;;;;;;;5059519;27;87961;-63
2022/11/14 04:16:11;;;;;;;2.07;1.40;;;;;;;;;;5060987;27;88760;-63
2022/11/14 04:18:40;;;;;;;1.93;1.40;;;;;;;;;;5060826;27;88540;-63
2022/11/14 04:21:08;;;;;;;2.53;1.30;;;;;;;;;;5060883;27;86949;-63
2022/11/14 04:23:38;;;;;;;1.70;1.17;;;;;;;;;;5061280;27;87509;-63
2022/11/14 04:26:06;;;;;;;2.10;1.50;;;;;;;;;;5061424;27;88838;-63
2022/11/14 04:28:34;;;;;;;2.70;1.23;;;;;;;;;;5063660;27;86974;-63
2022/11/14 04:31:03;;;;;;;1.20;1.10;;;;;;;;;;5064192;27;87009;-64
2022/11/14 04:33:31;;;;;;;1.20;1.10;;;;;;;;;;5064722;27;89114;-63
2022/11/14 04:35:59;;;;;;;2.67;1.40;;;;;;;;;;5063863;27;88712;-63
2022/11/14 04:38:27;;;;;;;2.47;1.27;;;;;;;;;;5064603;27;87060;-63
2022/11/14 04:40:58;;;;;;;2.00;1.80;;;;;;;;;;5064498;27;87086;-63
2022/11/14 04:43:26;;;;;;;1.83;1.40;;;;;;;;;;5063034;27;90183;-63
2022/11/14 04:45:54;;;;;;;1.17;1.03;;;;;;;;;;5063648;27;89839;-63
2022/11/14 04:48:23;;;;;;;1.47;1.20;;;;;;;;;;5064415;27;86982;-63
2022/11/14 04:50:51;;;;;;;1.33;1.20;;;;;;;;;;5064059;27;87098;-63
2022/11/14 04:53:19;;;;;;;0.90;0.90;;;;;;;;;;5064074;27;89133;-64
2022/11/14 04:55:47;;;;;;;2.20;1.43;;;;;;;;;;5063370;27;88584;-63
2022/11/14 04:58:17;;;;;;;3.10;1.43;;;;;;;;;;5062628;27;88440;-63
2022/11/14 05:00:46;;;;;;;5.63;1.40;;;;;;;;;;5062483;27;86218;-64
2022/11/14 05:03:14;;;;;;;1.67;1.57;;;;;;;;;;5061941;27;88763;-63
2022/11/14 05:05:42;;;;;;;2.33;1.80;;;;;;;;;;5064050;27;88742;-63
2022/11/14 05:08:11;;;;;;;2.07;1.60;;;;;;;;;;5063193;27;89198;-63
2022/11/14 05:10:42;;;;;;;3.90;2.43;;;;;;;;;;5063331;27;87020;-63
2022/11/14 05:13:11;;;;;;;2.80;2.10;;;;;;;;;;5063617;27;87886;-63
2022/11/14 05:15:40;;;;;;;3.87;1.63;;;;;;;;;;5063685;27;91122;-63
2022/11/14 05:18:09;;;;;;;2.50;2.10;;;;;;;;;;5063978;27;86898;-63
2022/11/14 05:20:37;;;;;;;4.03;2.43;;;;;;;;;;5062811;27;87713;-63
2022/11/14 05:23:05;;;;;;;3.00;1.70;;;;;;;;;;5062705;27;89053;-64
2022/11/14 05:25:34;;;;;;;2.53;1.77;;;;;;;;;;5063701;27;88894;-63
2022/11/14 05:28:02;;;;;;;4.03;2.30;;;;;;;;;;5064389;27;86914;-63
2022/11/14 05:30:30;;;;;;;2.77;2.03;;;;;;;;;;5064078;27;86786;-63
2022/11/14 05:33:00;;;;;;;4.53;2.00;;;;;;;;;;5062909;27;90066;-63
2022/11/14 05:35:29;;;;;;;3.87;2.73;;;;;;;;;;5063756;27;89634;-63
2022/11/14 05:37:57;;;;;;;4.90;2.63;;;;;;;;;;5063936;27;87045;-63
2022/11/14 05:40:27;;;;;;;4.13;2.23;;;;;;;;;;5063006;27;87028;-63
2022/11/14 05:42:55;;;;;;;4.70;2.53;;;;;;;;;;5063193;27;89001;-63
2022/11/14 05:45:24;;;;;;;3.77;2.33;;;;;;;;;;5063235;27;88769;-63
2022/11/14 05:47:53;;;;;;;3.53;2.53;;;;;;;;;;5063280;27;87665;-63
2022/11/14 05:50:23;;;;;;;2.50;2.00;;;;;;;;;;5063002;27;86418;-63
2022/11/14 05:52:51;;;;;;;3.33;2.10;;;;;;;;;;5062943;27;88700;-63
2022/11/14 05:55:19;;;;;;;2.77;1.80;;;;;;;;;;5063058;27;88954;-63
2022/11/14 05:57:52;;;;;;;3.50;2.17;;;;;;;;;;5062715;27;87803;-63
2022/11/14 06:00:20;;;;;;;2.40;1.33;;;;;;;;;;5063338;27;87033;-63
2022/11/14 06:02:49;;;;;;;2.73;1.97;;;;;;;;;;5063312;27;89168;-63
2022/11/14 06:05:17;;;;;;;2.53;2.27;;;;;;;;;;5062998;27;88767;-63
2022/11/14 06:07:47;;;;;;;1.93;1.73;;;;;;;;;;5063165;27;87064;-64
2022/11/14 06:10:15;;;;;;;2.10;1.87;;;;;;;;;;5062679;27;86948;-63
2022/11/14 06:12:43;;;;;;;2.70;1.90;;;;;;;;;;5062904;27;89178;-63
2022/11/14 06:15:12;;;;;;;4.33;2.13;;;;;;;;;;5062736;27;87347;-63
2022/11/14 06:17:40;;;;;;;4.43;2.53;;;;;;;;;;5062899;27;86872;-63
2022/11/14 06:20:09;;;;;;;3.97;1.73;;;;;;;;;;5062595;27;87139;-63
2022/11/14 06:22:37;;;;;;;3.70;2.03;;;;;;;;;;5062497;27;89159;-63
2022/11/14 06:25:07;;;;;;;2.40;1.83;;;;;;;;;;5062595;27;89490;-63
2022/11/14 06:27:36;;;;;;;3.47;1.57;;;;;;;;;;5062540;27;86995;-63
2022/11/14 06:30:04;;;;;;;3.17;1.97;;;;;;;;;;5063017;27;87088;-63
2022/11/14 06:32:33;;;;;;;2.13;1.63;;;;;;;;;;5062948;27;88910;-63
2022/11/14 06:35:02;;;;;;;2.93;1.20;;;;;;;;;;5062265;27;87041;-63
2022/11/14 06:37:31;;;;;;;3.30;1.87;;;;;;;;;;5062101;27;87046;-63
2022/11/14 06:40:01;;;;;;;3.17;1.83;;;;;;;;;;5062993;27;86227;-63
2022/11/14 06:42:30;;;;;;;3.70;2.30;;;;;;;;;;5061996;27;89177;-63
2022/11/14 06:44:59;;;;;;;1.77;1.47;;;;;;;;;;5062069;27;87302;-63
2022/11/14 06:47:27;;;;;;;2.40;1.70;;;;;;;;;;5065192;27;88091;-62
2022/11/14 06:49:55;;;;;;;1.83;1.50;;;;;;;;;;5065025;27;87016;-61
2022/11/14 06:52:25;;;;;;;2.37;1.40;;;;;;;;;;5062462;27;88109;-64
2022/11/14 06:54:53;;;;;;;1.80;1.60;;;;;;;;;;5061452;27;88744;-65
2022/11/14 06:57:22;;;;;;;3.13;1.80;;;;;;;;;;5078555;27;87110;-64
2022/11/14 06:59:51;;;;;;;2.17;1.50;;;;;;;;;;5056910;27;87093;-64
2022/11/14 07:02:20;;;;;;;2.83;1.87;;;;;;;;;;5051626;27;89099;-65
2022/11/14 07:04:49;;;;;;;3.00;1.97;;;;;;;;;;5063198;27;87735;-65
2022/11/14 07:07:17;;;;;;;1.80;1.50;;;;;;;;;;5063391;27;87235;-64
2022/11/14 07:09:46;;;;;;;1.90;1.40;;;;;;;;;;5059998;27;87012;-64
2022/11/14 07:12:14;;;;;;;3.37;1.50;;;;;;;;;;5061613;27;90121;-64
2022/11/14 07:14:42;;;;;;;1.67;1.47;;;;;;;;;;5060730;27;89862;-64
2022/11/14 07:17:12;;;;;;;9.37;1.77;;;;;;;;;;5061104;27;87795;-64
2022/11/14 07:19:40;;;;;;;2.80;1.63;;;;;;;;;;5061069;27;86859;-64
2022/11/14 07:22:09;;;;;;;2.30;1.63;;;;;;;;;;5060741;27;88027;-65
2022/11/14 07:24:37;;;;;;;2.97;1.80;;;;;;;;;;5061311;27;88718;-64
2022/11/14 07:27:08;;;;;;;2.50;1.37;;;;;;;;;;5060606;27;87088;-64
2022/11/14 07:29:36;;;;;;;1.17;0.93;;;;;;;;;;5065098;27;86306;-64
2022/11/14 07:32:04;;;;;;;2.93;1.47;;;;;;;;;;5071406;27;89266;-64
2022/11/14 07:34:34;;;;;;;2.03;1.50;;;;;;;;;;5072633;27;89032;-64
2022/11/14 07:37:03;;;;;;;1.83;1.13;;;;;;;;;;5060213;27;88225;-64
2022/11/14 07:39:31;;;;;;;0.83;0.83;;;;;;;;;;5070846;27;88654;-65
2022/11/14 07:41:59;;;;;;;2.73;1.80;;;;;;;;;;5061881;27;89898;-64
2022/11/14 07:44:28;;;;;;;1.90;1.50;;;;;;;;;;5059766;27;87252;-64
2022/11/14 07:46:56;;;;;;;1.73;1.10;;;;;;;;;;5062676;27;87064;-64
2022/11/14 07:49:24;;;;;;;1.43;1.13;;;;;;;;;;5065797;27;87058;-64
2022/11/14 07:51:54;;;;;;;2.17;1.30;;;;;;;;;;5061820;27;89200;-64
2022/11/14 07:54:22;;;;;;;2.83;1.50;;;;;;;;;;5065826;27;87920;-64
2022/11/14 07:56:51;;;;;;;2.80;1.30;;;;;;;;;;5071724;27;87005;-64
2022/11/14 07:59:19;;;;;;;2.07;1.23;;;;;;;;;;5062478;27;87059;-64
2022/11/14 08:01:48;;;;;;;2.90;1.30;;;;;;;;;;5069719;27;89613;-64
2022/11/14 08:04:16;;;;;;;1.37;1.27;;;;;;;;;;5071666;27;89666;-64
2022/11/14 08:06:44;;;;;;;1.87;1.70;;;;;;;;;;5073590;27;87177;-64
2022/11/14 08:09:14;;;;;;;1.57;1.00;;;;;;;;;;5065537;27;87584;-64
2022/11/14 08:11:48;;;;;;;1.80;1.00;;;;;;;;;;5067469;27;89111;-64
2022/11/14 08:14:16;;;;;;;2.07;1.17;;;;;;;;;;5063568;27;90255;-64
2022/11/14 08:16:45;;;;;;;1.20;1.10;;;;;;;;;;5064684;27;87269;-65
2022/11/14 08:19:15;;;;;;;1.57;1.07;;;;;;;;;;5069346;27;87191;-62
2022/11/14 08:21:43;;;;;;;2.37;1.30;;;;;;;;;;5066949;27;87991;-62
2022/11/14 08:24:12;;;;;;;2.57;1.10;;;;;;;;;;5066298;27;89315;-62
2022/11/14 08:26:41;;;;;;;0.80;0.77;;;;;;;;;;5065472;27;88202;-62
2022/11/14 08:29:10;;;;;;;2.07;1.10;;;;;;;;;;5063399;27;87653;-62
2022/11/14 08:31:38;;;;;;;1.73;1.30;;;;;;;;;;5075583;27;89188;-62
2022/11/14 08:34:06;;;;;;;1.13;1.00;;;;;;;;;;5065282;27;88280;-62
2022/11/14 08:36:35;;;;;;;2.07;1.43;;;;;;;;;;5069648;27;87054;-64
2022/11/14 08:39:03;;;;;;;4.47;1.37;;;;;;;;;;5071037;27;87200;-64
2022/11/14 08:41:31;;;;;;;1.77;1.27;;;;;;;;;;5067195;27;91720;-64
2022/11/14 08:44:01;;;;;;;2.50;1.23;;;;;;;;;;5062747;27;88652;-62
2022/11/14 08:46:30;;;;;;;2.00;1.10;;;;;;;;;;5071169;27;87132;-63
2022/11/14 08:48:58;;;;;;;1.00;0.83;;;;;;;;;;5070392;27;87123;-62
2022/11/14 08:51:26;;;;;;;1.37;1.13;;;;;;;;;;5067615;27;90030;-62
2022/11/14 08:53:54;;;;;;;1.63;1.30;;;;;;;;;;5066502;27;89797;-62
2022/11/14 08:56:23;;;;;;;2.00;1.00;;;;;;;;;;5076171;27;88796;-63
2022/11/14 08:58:51;;;;;;;1.63;0.90;;;;;;;;;;5066607;27;87499;-62
2022/11/14 09:01:21;;;;;;;1.40;1.13;;;;;;;;;;5062505;27;89309;-62
2022/11/14 09:03:49;;;;;;;1.67;1.20;;;;;;;;;;5077074;27;88880;-62
2022/11/14 09:06:24;;;;;;;1.90;1.10;;;;;;;;;;5057341;27;87070;-63
2022/11/14 09:08:52;;;;;;;1.97;1.00;;;;;;;;;;5062832;27;86363;-62
2022/11/14 09:11:20;;;;;;;1.53;1.13;;;;;;;;;;5062810;27;89188;-63
2022/11/14 09:13:48;;;;;;;1.37;1.27;;;;;;;;;;5058873;27;88458;-63
2022/11/14 09:16:17;;;;;;;1.43;1.20;;;;;;;;;;5062665;27;87934;-62
2022/11/14 09:18:47;;;;;;;1.53;0.97;;;;;;;;;;5062031;27;88876;-62
2022/11/14 09:21:15;;;;;;;4.00;1.20;;;;;;;;;;5057933;27;88042;-61
2022/11/14 09:23:43;;;;;;;1.50;1.13;;;;;;;;;;5058699;27;88907;-62
2022/11/14 09:26:12;;;;;;;1.10;0.60;;;;;;;;;;5045150;27;86971;-61
2022/11/14 09:28:40;;;;;;;1.73;0.97;;;;;;;;;;5063784;27;86889;-61
2022/11/14 09:31:09;;;;;;;0.73;0.73;;;;;;;;;;5062970;27;89130;-61
2022/11/14 09:33:37;;;;;;;0.90;0.80;;;;;;;;;;5062983;27;88816;-61
2022/11/14 09:36:08;;;;;;;1.93;1.10;;;;;;;;;;5063414;27;87008;-60
2022/11/14 09:38:36;;;;;;;2.67;1.13;;;;;;;;;;5063426;27;86905;-60
2022/11/14 09:41:11;;;;;;;2.43;0.90;;;;;;;;;;5062596;27;89137;-61
2022/11/14 09:43:45;;;;;;;0.70;0.70;;;;;;;;;;5063579;27;89613;-61
2022/11/14 09:46:16;;;;;;;0.93;0.90;;;;;;;;;;5053791;27;86996;-61
2022/11/14 09:48:45;;;;;;;1.63;1.40;;;;;;;;;;5062177;27;87542;-61
2022/11/14 09:51:16;;;;;;;1.03;0.93;;;;;;;;;;5065103;27;88221;-61
2022/11/14 09:53:47;;;;;;;1.23;0.77;;;;;;;;;;5083539;27;88509;-61
2022/11/14 09:56:16;;;;;;;1.77;1.30;;;;;;;;;;5072757;27;87987;-61
2022/11/14 09:58:44;;;;;;;2.50;0.80;;;;;;;;;;5062941;27;86721;-60
2022/11/14 10:01:14;;;;;;;1.30;0.80;;;;;;;;;;5064780;27;89047;-60
2022/11/14 10:03:44;;;;;;;2.97;1.00;;;;;;;;;;5062816;27;88855;-60
2022/11/14 10:06:21;;;;;;;1.47;0.70;;;;;;;;;;5062855;27;88040;-60
2022/11/14 10:08:56;;;;;;;1.13;1.00;;;;;;;;;;5063037;27;87667;-60
2022/11/14 10:11:28;;;;;;;5.57;1.20;;;;;;;;;;5062701;27;88963;-60
2022/11/14 10:14:16;;;;;;;0.87;0.83;;;;;;;;;;5067130;27;87356;-61
2022/11/14 10:16:46;;;;;;;3.90;1.63;;;;;;;;;;5082890;27;86996;-60
2022/11/14 10:19:17;;;;;;;3.20;1.10;;;;;;;;;;5081713;27;86987;-62
2022/11/14 10:21:50;;;;;;;0.87;0.87;;;;;;;;;;5067709;27;89195;-61
2022/11/14 10:24:24;;;;;;;1.07;0.80;;;;;;;;;;5056350;27;86567;-61
2022/11/14 10:26:53;;;;;;;1.20;0.90;;;;;;;;;;5057474;27;87040;-60
2022/11/14 10:29:40;;;;;;;8.17;1.30;;;;;;;;;;5055080;27;86914;-61
2022/11/14 10:32:11;;;;;;;0.80;0.80;;;;;;;;;;5067439;27;91733;-62
2022/11/14 10:34:41;;;;;;;2.97;0.90;;;;;;;;;;5076107;27;89863;-62
2022/11/14 10:37:14;;;;;;;1.60;0.80;;;;;;;;;;5077155;27;87028;-62
2022/11/14 10:39:42;;;;;;;1.43;1.20;;;;;;;;;;5059945;27;86946;-62
2022/11/14 10:42:12;;;;;;;3.57;1.30;;;;;;;;;;5064255;27;89058;-61
2022/11/14 10:44:42;;;;;;;5.03;1.13;;;;;;;;;;5061861;27;87942;-61
2022/11/14 10:47:11;;;;;;;1.70;1.23;;;;;;;;;;5062524;27;87046;-64
2022/11/14 10:49:39;;;;;;;2.40;1.50;;;;;;;;;;5062960;27;86505;-64
2022/11/14 10:52:10;;;;;;;1.67;0.93;;;;;;;;;;5061189;27;89022;-63
2022/11/14 10:54:41;;;;;;;2.97;1.20;;;;;;;;;;5058029;27;88862;-62
2022/11/14 10:57:14;;;;;;;1.73;1.30;;;;;;;;;;5068543;27;89661;-63
2022/11/14 10:59:43;;;;;;;0.80;0.77;;;;;;;;;;5082939;27;87029;-61
2022/11/14 11:02:11;;;;;;;2.30;1.30;;;;;;;;;;5061842;27;88668;-63
2022/11/14 11:04:40;;;;;;;1.50;1.00;;;;;;;;;;5061397;27;88094;-61
2022/11/14 11:13:06;;;;;;;1.20;1.10;;;;;;;;;;5024788;27;87202;-62
2022/11/14 11:15:39;;;;;;;2.33;1.43;;;;;;;;;;5062203;27;89067;-61
2022/11/14 11:18:23;;;;;;;1.00;1.00;;;;;;;;;;5062801;27;87115;-64
2022/11/14 11:21:01;;;;;;;1.90;0.97;;;;;;;;;;5061704;27;87514;-61
2022/11/14 11:23:30;;;;;;;1.37;1.00;;;;;;;;;;5060566;27;90379;-62
2022/11/14 11:26:04;;;;;;;2.07;1.07;;;;;;;;;;5061882;27;88718;-61
2022/11/14 11:28:33;;;;;;;3.23;1.07;;;;;;;;;;5062213;27;87564;-61
2022/11/14 11:31:02;;;;;;;1.20;1.10;;;;;;;;;;5061865;27;87141;-61
2022/11/14 11:33:30;;;;;;;0.93;0.90;;;;;;;;;;5062551;27;87039;-63
2022/11/14 11:36:00;;;;;;;2.80;1.47;;;;;;;;;;5062638;27;87150;-60
2022/11/14 11:38:29;;;;;;;1.53;1.03;;;;;;;;;;5068622;27;87046;-61
2022/11/14 11:41:05;;;;;;;3.10;1.63;;;;;;;;;;5068956;27;86333;-62
2022/11/14 11:43:54;;;;;;;1.00;0.90;;;;;;;;;;5068840;27;89289;-62
2022/11/14 11:46:25;;;;;;;2.17;1.33;;;;;;;;;;5067840;27;88975;-62
2022/11/14 11:48:55;;;;;;;2.40;1.47;;;;;;;;;;5068026;27;87834;-61
2022/11/14 11:51:23;;;;;;;8.87;2.83;;;;;;;;;;5068468;27;87039;-62
2022/11/14 11:53:55;;;;;;;12.93;2.63;;;;;;;;;;5068258;27;88074;-61
2022/11/14 11:56:26;;;;;;;32.57;11.17;;;;;;;;;;5067813;27;87871;-61
2022/11/14 11:58:56;;;;;;;116.03;36.20;;;;;;;;;;5068278;27;86920;-62
2022/11/14 12:01:24;;;;;;;153.00;40.53;;;;;;;;;;5067109;27;86948;-60
2022/11/14 12:03:53;;;;;;;148.60;43.47;;;;;;;;;;5066718;27;88736;-60
2022/11/14 12:06:23;;;;;;;140.73;37.90;;;;;;;;;;5067730;27;89028;-60
2022/11/14 12:08:55;;;;;;;116.00;35.47;;;;;;;;;;5067990;27;87033;-59
2022/11/14 12:11:25;;;;;;;116.13;33.30;;;;;;;;;;5067367;27;87013;-61
2022/11/14 12:14:08;;;;;;;105.20;32.83;;;;;;;;;;5066394;27;89982;-63
2022/11/14 12:16:43;;;;;;;83.67;29.20;;;;;;;;;;5063073;27;89876;-61
2022/11/14 12:19:23;;;;;;;87.43;27.87;;;;;;;;;;5068216;27;86914;-61
2022/11/14 12:21:56;;;;;;;79.17;24.70;;;;;;;;;;5087641;27;86918;-62
2022/11/14 12:24:35;;;;;;;68.37;21.77;;;;;;;;;;5087678;27;89129;-61
2022/11/14 12:27:19;;;;;;;66.37;21.63;;;;;;;;;;5087550;27;87289;-61
2022/11/14 12:29:50;;;;;;;67.77;19.17;;;;;;;;;;5079624;27;88498;-63
2022/11/14 12:32:22;;;;;;;56.60;17.47;;;;;;;;;;5067516;27;86285;-62
2022/11/14 12:34:51;;;;;;;56.37;18.33;;;;;;;;;;5067305;27;89170;-61
2022/11/14 12:37:21;;;;;;;53.83;16.90;;;;;;;;;;5085441;27;88906;-63
2022/11/14 12:39:56;;;;;;;41.80;15.97;;;;;;;;;;5087581;27;87673;-63
2022/11/14 12:42:24;;;;;;;46.77;16.50;;;;;;;;;;5087991;27;87034;-62
2022/11/14 12:44:53;;;;;;;40.23;15.00;;;;;;;;;;5087158;27;89296;-61
2022/11/14 12:47:23;;;;;;;37.67;15.10;;;;;;;;;;5073208;27;87652;-62
2022/11/14 12:49:58;;;;;;;32.43;12.47;;;;;;;;;;5063007;27;86977;-61
2022/11/14 12:52:43;;;;;;;41.07;13.57;;;;;;;;;;5063762;27;87041;-61
2022/11/14 12:55:26;;;;;;;37.50;13.40;;;;;;;;;;5063601;27;88925;-61
2022/11/14 12:57:56;;;;;;;41.17;15.37;;;;;;;;;;5063952;27;89021;-61
2022/11/14 13:00:24;;;;;;;28.97;11.40;;;;;;;;;;5084243;27;87048;-61
2022/11/14 13:03:11;;;;;;;32.43;10.03;;;;;;;;;;5084439;27;86940;-61
2022/11/14 13:05:49;;;;;;;26.90;8.77;;;;;;;;;;5083332;27;89181;-62
2022/11/14 13:08:22;;;;;;;28.10;9.90;;;;;;;;;;5084462;27;89917;-62
2022/11/14 13:10:50;;;;;;;23.50;9.37;;;;;;;;;;5086009;27;87049;-62
2022/11/14 13:22:07;;;;;;;21.23;8.57;;;;;;;;;;5084102;27;86903;-62
2022/11/14 13:24:53;;;;;;;22.50;8.17;;;;;;;;;;5084733;27;86259;-62
2022/11/14 13:27:25;;;;;;;17.97;7.27;;;;;;;;;;5071458;27;89193;-62
2022/11/14 13:30:13;;;;;;;24.90;7.40;;;;;;;;;;5084358;27;87409;-62
2022/11/14 13:33:06;;;;;;;20.00;6.60;;;;;;;;;;5083432;27;87899;-62
2022/11/14 13:35:39;;;;;;;17.03;7.77;;;;;;;;;;5064594;27;86993;-62
2022/11/14 13:38:12;;;;;;;15.97;6.53;;;;;;;;;;5082206;27;88000;-62
2022/11/14 13:40:43;;;;;;;21.43;6.03;;;;;;;;;;5077749;27;88317;-62
2022/11/14 13:43:13;;;;;;;16.63;7.10;;;;;;;;;;5063904;27;86959;-62
2022/11/14 13:45:45;;;;;;;17.93;5.90;;;;;;;;;;5056436;27;87002;-62
2022/11/14 13:48:23;;;;;;;19.27;6.13;;;;;;;;;;5062974;27;90021;-64
2022/11/14 13:50:53;;;;;;;15.90;4.97;;;;;;;;;;5062941;27;86475;-61
2022/11/14 13:53:23;;;;;;;13.37;5.30;;;;;;;;;;5063396;27;86754;-63
2022/11/14 13:55:55;;;;;;;17.27;5.60;;;;;;;;;;5064259;27;86958;-68
2022/11/14 13:58:27;;;;;;;11.73;4.23;;;;;;;;;;5058368;27;89532;-65
2022/11/14 14:00:59;;;;;;;12.97;4.47;;;;;;;;;;5042460;27;89739;-65
2022/11/14 14:03:32;;;;;;;10.50;4.03;;;;;;;;;;5045188;28;87065;-65
2022/11/14 14:06:11;;;;;;;10.83;4.40;;;;;;;;;;5043953;28;87256;-65
2022/11/14 14:08:48;;;;;;;12.27;4.93;;;;;;;;;;5043897;28;89067;-65
2022/11/14 14:11:22;;;;;;;16.07;5.20;;;;;;;;;;5044275;28;87549;-65
2022/11/14 14:13:52;;;;;;;13.90;4.90;;;;;;;;;;5043232;28;87059;-65
2022/11/14 14:16:23;;;;;;;9.87;4.33;;;;;;;;;;5053464;27;86289;-65
2022/11/14 14:18:54;;;;;;;13.10;4.40;;;;;;;;;;5043529;28;87860;-65
2022/11/14 14:21:28;;;;;;;6.33;3.93;;;;;;;;;;5032074;28;87381;-65
2022/11/14 14:23:59;;;;;;;8.10;3.50;;;;;;;;;;5042999;28;87974;-65
2022/11/14 14:26:27;;;;;;;7.27;3.37;;;;;;;;;;5042980;28;87060;-65
2022/11/14 14:28:58;;;;;;;10.97;3.73;;;;;;;;;;5042655;28;88972;-65
2022/11/14 14:31:34;;;;;;;9.17;3.77;;;;;;;;;;5041491;28;86839;-65
2022/11/14 14:34:02;;;;;;;10.80;3.83;;;;;;;;;;5043288;27;86960;-65
2022/11/14 14:36:32;;;;;;;8.23;3.53;;;;;;;;;;5043232;27;87038;-65
2022/11/14 14:39:08;;;;;;;6.30;3.47;;;;;;;;;;5042832;27;91861;-65
2022/11/14 14:41:36;;;;;;;7.50;2.70;;;;;;;;;;5023100;28;87787;-65
2022/11/14 14:44:04;;;;;;;8.37;2.90;;;;;;;;;;5022579;28;87007;-65
2022/11/14 14:46:33;;;;;;;6.40;3.33;;;;;;;;;;5035951;28;86964;-65
2022/11/14 14:49:02;;;;;;;13.53;3.70;;;;;;;;;;5042216;28;87696;-65
2022/11/14 14:51:33;;;;;;;6.93;2.90;;;;;;;;;;5042655;28;89792;-65
2022/11/14 14:54:01;;;;;;;11.30;3.87;;;;;;;;;;5043071;28;86818;-66
2022/11/14 14:56:30;;;;;;;5.50;3.33;;;;;;;;;;5042768;28;86978;-66
2022/11/14 14:58:58;;;;;;;6.87;3.07;;;;;;;;;;5053158;27;89097;-66
2022/11/14 15:01:28;;;;;;;7.53;3.50;;;;;;;;;;5063621;27;89360;-66
2022/11/14 15:03:57;;;;;;;7.17;2.60;;;;;;;;;;5063702;27;87127;-65
2022/11/14 15:06:30;;;;;;;6.87;2.83;;;;;;;;;;5063218;27;86520;-66
2022/11/14 15:08:59;;;;;;;3.93;2.47;;;;;;;;;;5063853;27;89064;-66
2022/11/14 15:11:28;;;;;;;6.03;2.30;;;;;;;;;;5062851;27;89073;-66